Overview Statistics Trail Chart Weather Telemetry Raw packets
 

This is the latest recevied weather packets stored in our database for station/object SR1WXW. If no packets are shown the sender has not sent any weather packets the latest 10 day(s).

<< 112 113 114 115 116 >>
Time Temp. Humidity Pressure Rain* Wind** Luminosity Snow
1787736989 19.44° C 64% 1018.5 hPa 0 mm - - -
1787736689 19.44° C 64% 1018.5 hPa 0 mm - - -
1787736389 19.44° C 64% 1018.6 hPa 0 mm - - -
1787736089 19.44° C 64% 1018.5 hPa 0 mm - - -
1787735789 19.44° C 64% 1018.6 hPa 0 mm - - -
1787735489 19.44° C 63% 1018.5 hPa 0 mm - - -
1787735189 19.44° C 63% 1018.6 hPa 0 mm - - -
1787734889 19.44° C 63% 1018.6 hPa 0 mm - - -
1787734589 20° C 63% 1018.6 hPa 0 mm - - -
1787734289 20° C 64% 1018.6 hPa 0 mm - - -
1787733989 20° C 63% 1018.6 hPa 0 mm - - -
1787733689 20.56° C 62% 1018.6 hPa 0 mm - - -
1787733389 21.11° C 62% 1018.6 hPa 0 mm - - -
1787733089 21.67° C 61% 1018.6 hPa 0 mm - - -
1787732789 22.22° C 60% 1018.6 hPa 0 mm - - -
1787732489 22.78° C 60% 1018.6 hPa 0 mm - - -
1787732189 23.33° C 60% 1018.6 hPa 0 mm - - -
1787731889 23.89° C 58% 1018.6 hPa 0 mm - - -
1787731589 24.44° C 58% 1018.7 hPa 0 mm - - -
1787731289 25° C 57% 1018.6 hPa 0 mm - - -
1787730989 25.56° C 58% 1018.6 hPa 0 mm - - -
1787730689 25° C 61% 1018.4 hPa 0 mm - - -
1787730389 24.44° C 65% 1018.5 hPa 0 mm - - -
1787730090 23.89° C 66% 1018.3 hPa 0 mm - - -
1787729790 22.78° C 69% 1018.3 hPa 0 mm - - -

* Rain latest hour (hover to see other rain measurements)
** Current wind speed in m/s (hover to see current wind gust speed)